Main page
METAR-TAF:

METAR-TAF

Airports :

Florennes, Belgium

Florennes Air Base

latitude: 50-14N, longitude: 004-39E, elevation: 279 m

Current weather observation

The report was made 20 minutes ago, at 23:55 UTC
Wind 4 kt from the West/Southwest
Temperature 2°C
Humidity 87%
Pressure 1023 hPa
Visibility 10 km or more

METAR: EBFS 192355Z AUTO 25004KT 9999 OVC110/// 02/M00 Q1023 BLU

Time: 01:15 (00:15 UTC)


TAF: missing

Weather observations and forecasts of more than 4000 airports (METAR and TAF reports).

The available stations are represented by yellow and red dots on the map.

Hover mouse over dot to see the name of the station.

Then click to see weather observations and forecasts.

To change the map : click on the green buttons with a black cross to zoom in, on the green button with a dash to zoom out, or on the green arrows for adjacent maps.


METAR-TAF: